Time;durP1;ratioP1;P1;durP2;ratioP2;P2;SDS_P1;SDS_P2;PMS_P1;PMS_P2;Temp;Humidity;BMP_temperature;BMP_pressure;BME280_temperature;BME280_humidity;BME280_pressure;Samples;Min_cycle;Max_cycle;Signal;HPM_P1;HPM_P2
2022/03/18 00:00:40;;;;;;;;;;;6.20;99.90;;;;;;5092240;28;20398;-71
2022/03/18 00:03:10;;;;;;;;;;;6.30;99.90;;;;;;5101373;28;19977;-72
2022/03/18 00:05:37;;;;;;;;;;;6.30;99.90;;;;;;5097253;28;19924;-71
2022/03/18 00:08:04;;;;;;;;;;;6.30;99.90;;;;;;5099235;28;19924;-71
2022/03/18 00:10:33;;;;;;;;;;;6.30;99.90;;;;;;5105715;28;19923;-71
2022/03/18 00:13:00;;;;;;;;;;;6.30;99.90;;;;;;5100521;28;19924;-71
2022/03/18 00:15:27;;;;;;;;;;;6.30;99.90;;;;;;5091843;28;19954;-71
2022/03/18 00:17:55;;;;;;;;;;;6.20;99.90;;;;;;5090801;28;19946;-72
2022/03/18 00:20:22;;;;;;;;;;;6.20;99.90;;;;;;5109544;28;19930;-71
2022/03/18 00:22:49;;;;;;;;;;;6.20;99.90;;;;;;5103848;28;19928;-72
2022/03/18 00:25:17;;;;;;;;;;;6.20;99.90;;;;;;5090720;28;20387;-71
2022/03/18 00:27:46;;;;;;;;;;;6.20;99.90;;;;;;5097300;28;20002;-71
2022/03/18 00:30:14;;;;;;;;;;;6.30;99.90;;;;;;5091189;28;19932;-71
2022/03/18 00:32:42;;;;;;;;;;;6.20;99.90;;;;;;5074634;28;19924;-71
2022/03/18 00:35:29;;;;;;;;;;;6.30;99.90;;;;;;5091905;28;19924;-71
2022/03/18 00:37:55;;;;;;;;;;;6.20;99.90;;;;;;5090996;28;19928;-71
2022/03/18 00:40:22;;;;;;;;;;;6.20;99.90;;;;;;5077051;28;20392;-71
2022/03/18 00:42:50;;;;;;;;;;;6.20;99.90;;;;;;5080997;28;20015;-71
2022/03/18 00:45:19;;;;;;;;;;;6.30;99.90;;;;;;5106300;28;19955;-71
2022/03/18 00:53:16;;;;;;;;;;;6.30;99.90;;;;;;5096193;28;19977;-72
2022/03/18 00:55:42;;;;;;;;;;;6.30;99.90;;;;;;5107108;28;20022;-72
2022/03/18 00:58:10;;;;;;;;;;;6.20;99.90;;;;;;5098488;28;19924;-72
2022/03/18 01:00:37;;;;;;;;;;;6.20;99.90;;;;;;5096700;28;19928;-71
2022/03/18 01:03:05;;;;;;;;;;;6.10;99.90;;;;;;5108319;28;19923;-71
2022/03/18 01:05:32;;;;;;;;;;;6.00;99.90;;;;;;5106207;28;19963;-71
2022/03/18 01:07:59;;;;;;;;;;;6.00;99.90;;;;;;5103368;28;20023;-71
2022/03/18 01:10:25;;;;;;;;;;;6.00;99.90;;;;;;5091457;28;19930;-70
2022/03/18 01:12:52;;;;;;;;;;;5.90;99.90;;;;;;5073385;28;19924;-69
2022/03/18 01:15:18;;;;;;;;;;;5.90;99.90;;;;;;5095943;28;19931;-69
2022/03/18 01:17:45;;;;;;;;;;;5.80;99.90;;;;;;5087602;28;19931;-69
2022/03/18 01:20:12;;;;;;;;;;;5.70;99.90;;;;;;5091443;28;19947;-69
2022/03/18 01:22:38;;;;;;;;;;;5.70;99.90;;;;;;5090751;28;19931;-71
2022/03/18 01:25:06;;;;;;;;;;;5.60;99.90;;;;;;5091146;28;19977;-71
2022/03/18 01:27:32;;;;;;;;;;;5.50;99.90;;;;;;5097363;28;19924;-71
2022/03/18 01:29:59;;;;;;;;;;;5.50;99.90;;;;;;5080486;28;20027;-71
2022/03/18 01:32:26;;;;;;;;;;;5.40;99.90;;;;;;5105751;28;20313;-71
2022/03/18 01:34:54;;;;;;;;;;;5.40;99.90;;;;;;5098633;28;20015;-71
2022/03/18 01:37:22;;;;;;;;;;;5.40;99.90;;;;;;5087478;28;20011;-72
2022/03/18 01:39:49;;;;;;;;;;;5.30;99.90;;;;;;5091624;28;20592;-72
2022/03/18 01:42:16;;;;;;;;;;;5.30;99.90;;;;;;5091118;28;20007;-71
2022/03/18 01:44:44;;;;;;;;;;;5.30;99.90;;;;;;5098870;28;19924;-71
2022/03/18 01:47:11;;;;;;;;;;;5.30;99.90;;;;;;5104728;28;19979;-71
2022/03/18 01:49:39;;;;;;;;;;;5.30;99.90;;;;;;5090921;28;19924;-71
2022/03/18 01:52:10;;;;;;;;;;;5.20;99.90;;;;;;5103822;28;20117;-72
2022/03/18 01:54:49;;;;;;;;;;;5.10;99.90;;;;;;5102106;28;20767;-71
2022/03/18 01:57:26;;;;;;;;;;;5.10;99.90;;;;;;5095559;28;19938;-71
2022/03/18 01:59:56;;;;;;;;;;;5.00;99.90;;;;;;5091332;28;19924;-72
2022/03/18 02:02:26;;;;;;;;;;;5.00;99.90;;;;;;5108555;28;19924;-70
2022/03/18 02:04:55;;;;;;;;;;;5.10;99.90;;;;;;5103463;28;19923;-70
2022/03/18 02:07:22;;;;;;;;;;;5.10;99.90;;;;;;5113270;28;19967;-69
2022/03/18 02:09:49;;;;;;;;;;;5.10;99.90;;;;;;5103212;28;19970;-70
2022/03/18 02:12:15;;;;;;;;;;;5.20;99.90;;;;;;5101952;28;19969;-70
2022/03/18 02:14:43;;;;;;;;;;;5.10;99.90;;;;;;5092008;28;19967;-71
2022/03/18 02:17:11;;;;;;;;;;;5.10;99.90;;;;;;5103311;28;19932;-70
2022/03/18 02:19:39;;;;;;;;;;;5.00;99.90;;;;;;5110345;28;19963;-69
2022/03/18 02:22:10;;;;;;;;;;;5.00;99.90;;;;;;5103228;28;19975;-70
2022/03/18 02:24:37;;;;;;;;;;;5.00;99.90;;;;;;5113248;28;20023;-70
2022/03/18 02:27:07;;;;;;;;;;;5.00;99.90;;;;;;5113036;28;20382;-70
2022/03/18 02:29:34;;;;;;;;;;;4.90;99.90;;;;;;5096416;28;20023;-70
2022/03/18 02:32:01;;;;;;;;;;;4.90;99.90;;;;;;5112194;28;20385;-70
2022/03/18 02:34:28;;;;;;;;;;;4.80;99.90;;;;;;5097336;28;19928;-71
2022/03/18 02:36:55;;;;;;;;;;;4.80;99.90;;;;;;5094853;28;19966;-70
2022/03/18 02:39:22;;;;;;;;;;;4.90;99.90;;;;;;5098267;28;19999;-70
2022/03/18 02:41:49;;;;;;;;;;;4.90;99.90;;;;;;5101478;28;20288;-70
2022/03/18 02:44:16;;;;;;;;;;;4.80;99.90;;;;;;5093403;28;20370;-71
2022/03/18 02:46:42;;;;;;;;;;;4.70;99.90;;;;;;5097634;28;20276;-70
2022/03/18 02:49:12;;;;;;;;;;;4.70;99.90;;;;;;5093846;28;20026;-70
2022/03/18 02:51:39;;;;;;;;;;;4.70;99.90;;;;;;5106711;28;19970;-70
2022/03/18 02:54:09;;;;;;;;;;;4.70;99.90;;;;;;5110821;28;19923;-70
2022/03/18 02:56:39;;;;;;;;;;;4.70;99.90;;;;;;5098973;28;20014;-70
2022/03/18 02:59:06;;;;;;;;;;;4.60;99.90;;;;;;5096354;28;19949;-70
2022/03/18 03:01:32;;;;;;;;;;;4.50;99.90;;;;;;5107395;28;19976;-70
2022/03/18 03:03:59;;;;;;;;;;;4.50;99.90;;;;;;5102967;28;19992;-70
2022/03/18 03:09:12;;;;;;;;;;;4.50;99.90;;;;;;5107900;28;20497;-70
2022/03/18 03:11:39;;;;;;;;;;;4.50;99.90;;;;;;5093057;28;19931;-69
2022/03/18 03:14:11;;;;;;;;;;;4.40;99.90;;;;;;5093501;28;19955;-69
2022/03/18 03:16:38;;;;;;;;;;;4.40;99.90;;;;;;5108675;28;19975;-69
2022/03/18 03:19:05;;;;;;;;;;;4.40;99.90;;;;;;5097307;28;19970;-69
2022/03/18 03:21:31;;;;;;;;;;;4.40;99.90;;;;;;5110624;28;20014;-69
2022/03/18 03:23:58;;;;;;;;;;;4.30;99.90;;;;;;5099710;28;20006;-70
2022/03/18 03:26:28;;;;;;;;;;;4.40;99.90;;;;;;5091384;28;20015;-69
2022/03/18 03:28:54;;;;;;;;;;;4.40;99.90;;;;;;5098457;28;19924;-70
2022/03/18 03:31:21;;;;;;;;;;;4.30;99.90;;;;;;5107940;28;19928;-69
2022/03/18 03:33:48;;;;;;;;;;;4.30;99.90;;;;;;5106435;28;19980;-70
2022/03/18 03:36:14;;;;;;;;;;;4.20;99.90;;;;;;5101436;28;20285;-69
2022/03/18 03:38:41;;;;;;;;;;;4.20;99.90;;;;;;5105902;28;20497;-70
2022/03/18 03:41:08;;;;;;;;;;;4.10;99.90;;;;;;5093361;28;20018;-70
2022/03/18 03:43:35;;;;;;;;;;;4.00;99.90;;;;;;5110171;28;19969;-69
2022/03/18 03:46:02;;;;;;;;;;;4.00;99.90;;;;;;5102576;28;20271;-69
2022/03/18 03:48:28;;;;;;;;;;;4.00;99.90;;;;;;5092055;28;19924;-69
2022/03/18 03:50:56;;;;;;;;;;;;;;;;;;5093235;28;19954;-69
2022/03/18 03:53:23;;;;;;;;;;;3.90;99.90;;;;;;5098948;28;19963;-70
2022/03/18 03:55:50;;;;;;;;;;;3.80;99.90;;;;;;5089472;28;19924;-69
2022/03/18 03:58:16;;;;;;;;;;;3.80;99.90;;;;;;5103915;28;19928;-69
2022/03/18 04:00:43;;;;;;;;;;;3.80;99.90;;;;;;5094359;28;20026;-70
2022/03/18 04:03:11;;;;;;;;;;;3.70;99.90;;;;;;5096980;28;19931;-70
2022/03/18 04:05:38;;;;;;;;;;;3.70;99.90;;;;;;5094674;28;19935;-70
2022/03/18 04:08:05;;;;;;;;;;;3.50;99.90;;;;;;5110484;28;19932;-70
2022/03/18 04:10:32;;;;;;;;;;;3.40;99.90;;;;;;5109334;28;19924;-70
2022/03/18 04:12:59;;;;;;;;;;;3.30;99.90;;;;;;5091632;28;19924;-70
2022/03/18 04:15:26;;;;;;;;;;;3.30;99.90;;;;;;5092100;28;19924;-70
2022/03/18 04:17:53;;;;;;;;;;;3.20;99.90;;;;;;5102979;28;19931;-70
2022/03/18 04:20:23;;;;;;;;;;;3.20;99.90;;;;;;5103026;28;19963;-69
2022/03/18 04:22:50;;;;;;;;;;;3.20;99.90;;;;;;5091731;28;19968;-70
2022/03/18 04:25:17;;;;;;;;;;;3.10;99.90;;;;;;5106626;28;19924;-70
2022/03/18 04:27:43;;;;;;;;;;;3.20;99.90;;;;;;5081612;28;19963;-70
2022/03/18 04:30:11;;;;;;;;;;;3.20;99.90;;;;;;5106581;28;20590;-71
2022/03/18 04:32:38;;;;;;;;;;;3.20;99.90;;;;;;5096530;28;19970;-71
2022/03/18 04:35:06;;;;;;;;;;;3.30;99.90;;;;;;5108813;28;19924;-71
2022/03/18 04:37:33;;;;;;;;;;;3.30;99.90;;;;;;5091682;28;19924;-70
2022/03/18 04:39:59;;;;;;;;;;;3.40;99.90;;;;;;5106151;28;19935;-70
2022/03/18 04:42:26;;;;;;;;;;;3.40;99.90;;;;;;5092183;28;19975;-70
2022/03/18 04:44:53;;;;;;;;;;;3.50;99.90;;;;;;5091383;28;20385;-70
2022/03/18 04:47:19;;;;;;;;;;;3.50;99.90;;;;;;5090622;28;19924;-70
2022/03/18 04:49:46;;;;;;;;;;;3.50;99.90;;;;;;5105160;28;20023;-70
2022/03/18 04:52:13;;;;;;;;;;;3.50;99.90;;;;;;5091241;28;20010;-70
2022/03/18 04:54:39;;;;;;;;;;;3.40;99.90;;;;;;5090843;28;19930;-70
2022/03/18 04:57:15;;;;;;;;;;;3.50;99.90;;;;;;5105273;28;20002;-71
2022/03/18 04:59:42;;;;;;;;;;;3.60;99.90;;;;;;5105743;28;19924;-71
2022/03/18 05:02:14;;;;;;;;;;;3.50;99.90;;;;;;5105855;28;20286;-71
2022/03/18 05:04:44;;;;;;;;;;;3.50;99.90;;;;;;5085593;28;20370;-71
2022/03/18 05:07:11;;;;;;;;;;;3.40;99.90;;;;;;5099254;28;20003;-71
2022/03/18 05:09:41;;;;;;;;;;;3.30;99.90;;;;;;5090978;28;19928;-71
2022/03/18 05:12:11;;;;;;;;;;;3.30;99.90;;;;;;5108414;28;20274;-71
2022/03/18 05:14:43;;;;;;;;;;;3.20;99.90;;;;;;5100132;28;19969;-71
2022/03/18 05:17:10;;;;;;;;;;;3.10;99.90;;;;;;5093424;28;20015;-70
2022/03/18 05:19:38;;;;;;;;;;;3.00;99.90;;;;;;5109948;28;19930;-71
2022/03/18 05:22:06;;;;;;;;;;;3.00;99.90;;;;;;5088978;28;19989;-70
2022/03/18 05:24:33;;;;;;;;;;;3.00;99.90;;;;;;5107346;28;19924;-71
2022/03/18 05:27:00;;;;;;;;;;;3.00;99.90;;;;;;5107204;28;19938;-70
2022/03/18 05:29:27;;;;;;;;;;;2.90;99.90;;;;;;5091023;28;20087;-70
2022/03/18 05:31:54;;;;;;;;;;;3.00;99.90;;;;;;5098668;28;20011;-70
2022/03/18 05:34:21;;;;;;;;;;;3.00;99.90;;;;;;5106821;28;19981;-71
2022/03/18 05:36:47;;;;;;;;;;;3.00;99.90;;;;;;5093258;28;19924;-70
2022/03/18 05:39:14;;;;;;;;;;;3.20;99.90;;;;;;5088356;28;19946;-70
2022/03/18 05:41:43;;;;;;;;;;;3.20;99.90;;;;;;5112624;28;19969;-70
2022/03/18 05:44:10;;;;;;;;;;;3.30;99.90;;;;;;5094958;28;20451;-70
2022/03/18 05:46:41;;;;;;;;;;;3.40;99.90;;;;;;5093372;28;19998;-70
2022/03/18 05:49:08;;;;;;;;;;;3.40;99.90;;;;;;5087811;28;19928;-70
2022/03/18 05:51:35;;;;;;;;;;;3.50;99.90;;;;;;5094711;28;20003;-70
2022/03/18 05:54:02;;;;;;;;;;;3.60;99.90;;;;;;5094910;28;20020;-71
2022/03/18 05:59:17;;;;;;;;;;;3.70;99.90;;;;;;5109970;28;19924;-70
2022/03/18 06:01:44;;;;;;;;;;;3.90;99.90;;;;;;5093446;28;20295;-70
2022/03/18 06:04:11;;;;;;;;;;;3.90;99.90;;;;;;5099374;28;20031;-70
2022/03/18 06:06:39;;;;;;;;;;;4.00;99.90;;;;;;5111473;28;20402;-71
2022/03/18 06:11:51;;;;;;;;;;;4.10;99.90;;;;;;5101998;28;19967;-71
2022/03/18 06:14:19;;;;;;;;;;;4.20;99.90;;;;;;5077225;28;19928;-71
2022/03/18 06:16:47;;;;;;;;;;;4.20;99.90;;;;;;5091189;28;20003;-71
2022/03/18 06:19:15;;;;;;;;;;;4.30;99.90;;;;;;5112947;28;19927;-71
2022/03/18 06:21:45;;;;;;;;;;;4.40;99.90;;;;;;5105037;28;19931;-71
2022/03/18 06:24:15;;;;;;;;;;;4.40;99.90;;;;;;5076388;28;20031;-71
2022/03/18 06:26:42;;;;;;;;;;;4.50;99.90;;;;;;5107242;28;19923;-71
2022/03/18 06:29:09;;;;;;;;;;;4.60;99.90;;;;;;5113073;28;20421;-71
2022/03/18 06:31:36;;;;;;;;;;;4.60;99.90;;;;;;5097463;28;19924;-71
2022/03/18 06:34:03;;;;;;;;;;;4.70;99.90;;;;;;5101616;28;19959;-71
2022/03/18 06:36:32;;;;;;;;;;;4.80;99.90;;;;;;5104835;28;19948;-71
2022/03/18 06:38:58;;;;;;;;;;;4.80;99.90;;;;;;5086313;28;19980;-71
2022/03/18 06:41:26;;;;;;;;;;;4.90;99.90;;;;;;5111508;28;20348;-71
2022/03/18 06:43:53;;;;;;;;;;;5.00;99.90;;;;;;5082680;28;20019;-71
2022/03/18 06:46:20;;;;;;;;;;;5.10;99.90;;;;;;5092043;28;19924;-69
2022/03/18 06:48:47;;;;;;;;;;;5.10;99.90;;;;;;5092852;28;19924;-70
2022/03/18 06:51:13;;;;;;;;;;;5.20;99.90;;;;;;5102729;28;19951;-70
2022/03/18 06:53:41;;;;;;;;;;;5.30;99.90;;;;;;5093262;28;19930;-70
2022/03/18 06:56:08;;;;;;;;;;;5.40;99.90;;;;;;5112554;28;19967;-70
2022/03/18 06:58:38;;;;;;;;;;;5.50;99.90;;;;;;5099739;28;20523;-70
2022/03/18 07:01:04;;;;;;;;;;;5.60;99.90;;;;;;5099754;28;19924;-70
2022/03/18 07:03:34;;;;;;;;;;;5.70;99.90;;;;;;5110264;28;20439;-70
2022/03/18 07:06:01;;;;;;;;;;;5.80;99.90;;;;;;5107790;28;19967;-71
2022/03/18 07:08:28;;;;;;;;;;;5.90;99.90;;;;;;5093548;28;20010;-71
2022/03/18 07:10:57;;;;;;;;;;;6.00;99.90;;;;;;5102207;28;20550;-71
2022/03/18 07:13:24;;;;;;;;;;;6.10;99.90;;;;;;5092968;28;20459;-71
2022/03/18 07:15:51;;;;;;;;;;;6.20;99.90;;;;;;5107818;28;19958;-71
2022/03/18 07:18:19;;;;;;;;;;;6.20;99.90;;;;;;5096280;28;19985;-71
2022/03/18 07:20:46;;;;;;;;;;;6.30;99.90;;;;;;5100834;28;19928;-71
2022/03/18 07:23:17;;;;;;;;;;;6.40;99.90;;;;;;5100028;28;19958;-71
2022/03/18 07:25:45;;;;;;;;;;;6.40;99.90;;;;;;5102350;28;20489;-71
2022/03/18 07:28:18;;;;;;;;;;;6.60;99.90;;;;;;5104044;28;20527;-71
2022/03/18 07:30:45;;;;;;;;;;;6.70;99.90;;;;;;5092795;28;20863;-71
2022/03/18 07:33:11;;;;;;;;;;;6.90;99.90;;;;;;5098398;28;20006;-71
2022/03/18 07:35:38;;;;;;;;;;;6.90;99.90;;;;;;5092443;28;20012;-71
2022/03/18 07:38:08;;;;;;;;;;;6.90;99.90;;;;;;5100498;28;20390;-71
2022/03/18 07:40:36;;;;;;;;;;;6.90;99.90;;;;;;5106914;28;19928;-71
2022/03/18 07:43:03;;;;;;;;;;;7.00;99.90;;;;;;5095303;28;19930;-71
2022/03/18 07:45:31;;;;;;;;;;;7.20;99.90;;;;;;5111555;28;19930;-71
2022/03/18 07:48:00;;;;;;;;;;;7.30;99.90;;;;;;5093057;28;19974;-71
2022/03/18 07:50:28;;;;;;;;;;;7.30;99.90;;;;;;5087958;28;19951;-71
2022/03/18 07:52:56;;;;;;;;;;;7.30;99.90;;;;;;5101660;28;20014;-71
2022/03/18 07:55:24;;;;;;;;;;;7.20;99.90;;;;;;5093655;28;19924;-71
2022/03/18 07:57:51;;;;;;;;;;;7.30;99.90;;;;;;5092029;28;19959;-71
2022/03/18 08:00:19;;;;;;;;;;;7.40;99.90;;;;;;5085752;28;20852;-71
2022/03/18 08:02:46;;;;;;;;;;;7.50;99.90;;;;;;5092851;28;19931;-71
2022/03/18 08:05:13;;;;;;;;;;;7.60;99.90;;;;;;5102233;28;19924;-71
2022/03/18 08:07:41;;;;;;;;;;;7.70;99.90;;;;;;5095644;28;20015;-71
2022/03/18 08:10:09;;;;;;;;;;;8.00;99.90;;;;;;5092557;28;19924;-69
2022/03/18 08:12:37;;;;;;;;;;;8.20;99.90;;;;;;5096780;28;19939;-71
2022/03/18 08:15:05;;;;;;;;;;;8.30;99.90;;;;;;5110346;28;19923;-69
2022/03/18 08:17:36;;;;;;;;;;;8.20;99.90;;;;;;5103277;28;19928;-70
2022/03/18 08:20:03;;;;;;;;;;;8.30;99.90;;;;;;5091066;28;20390;-72
2022/03/18 08:22:30;;;;;;;;;;;8.10;99.90;;;;;;5100989;28;19931;-70
2022/03/18 08:24:57;;;;;;;;;;;8.10;99.90;;;;;;5099401;28;19924;-69
2022/03/18 08:27:23;;;;;;;;;;;8.20;99.90;;;;;;5097158;28;19924;-70
2022/03/18 08:29:57;;;;;;;;;;;8.50;99.90;;;;;;5083024;28;20007;-70
2022/03/18 08:32:25;;;;;;;;;;;8.90;99.90;;;;;;5091068;28;19963;-69
2022/03/18 08:34:51;;;;;;;;;;;9.30;99.90;;;;;;5092792;28;19924;-70
2022/03/18 08:40:20;;;;;;;;;;;9.50;99.90;;;;;;5068879;28;20010;-70
2022/03/18 08:42:46;;;;;;;;;;;9.40;99.90;;;;;;5107728;28;19962;-70
2022/03/18 08:45:13;;;;;;;;;;;9.40;99.90;;;;;;5096746;28;19924;-70
2022/03/18 08:47:40;;;;;;;;;;;9.10;99.90;;;;;;5106308;28;19962;-70
2022/03/18 08:50:07;;;;;;;;;;;9.00;99.90;;;;;;5098747;28;20011;-71
2022/03/18 08:52:33;;;;;;;;;;;9.10;99.90;;;;;;5085871;28;19990;-71
2022/03/18 08:55:04;;;;;;;;;;;9.00;99.90;;;;;;5100809;28;19977;-71
2022/03/18 08:57:33;;;;;;;;;;;8.80;99.90;;;;;;5088511;28;19924;-70
2022/03/18 09:00:00;;;;;;;;;;;8.80;99.90;;;;;;5103878;28;19924;-71
2022/03/18 09:02:29;;;;;;;;;;;9.00;99.90;;;;;;5092293;28;19934;-70
2022/03/18 09:04:56;;;;;;;;;;;9.10;99.90;;;;;;5099144;28;19924;-69
2022/03/18 09:07:23;;;;;;;;;;;9.10;99.90;;;;;;5108815;28;19959;-70
2022/03/18 09:09:49;;;;;;;;;;;9.30;99.90;;;;;;5099834;28;19969;-69
2022/03/18 09:12:21;;;;;;;;;;;9.60;99.90;;;;;;5091102;28;19980;-70
2022/03/18 09:14:48;;;;;;;;;;;9.90;99.90;;;;;;5090646;28;20690;-70
2022/03/18 09:17:15;;;;;;;;;;;10.30;99.90;;;;;;5090130;28;19993;-70
2022/03/18 09:19:45;;;;;;;;;;;10.30;99.90;;;;;;5090658;28;20019;-69
2022/03/18 09:22:15;;;;;;;;;;;10.20;99.90;;;;;;5099037;28;19924;-70
2022/03/18 09:24:43;;;;;;;;;;;10.20;99.90;;;;;;5090455;28;19934;-70
2022/03/18 09:27:10;;;;;;;;;;;10.30;99.90;;;;;;5091025;28;20011;-69
2022/03/18 09:29:39;;;;;;;;;;;10.30;99.90;;;;;;5100469;28;19981;-70
2022/03/18 09:32:05;;;;;;;;;;;10.40;99.90;;;;;;5096918;28;19931;-70
2022/03/18 09:34:34;;;;;;;;;;;10.30;99.90;;;;;;5090945;28;19923;-70
2022/03/18 09:37:04;;;;;;;;;;;10.50;99.90;;;;;;5090517;28;19924;-69
2022/03/18 09:39:31;;;;;;;;;;;10.80;99.90;;;;;;5088225;28;20411;-70
2022/03/18 09:42:03;;;;;;;;;;;11.00;99.90;;;;;;5092338;28;19952;-70
2022/03/18 09:44:42;;;;;;;;;;;11.00;99.90;;;;;;5105165;28;20018;-70
2022/03/18 09:47:09;;;;;;;;;;;11.00;99.90;;;;;;5109361;28;20011;-70
2022/03/18 09:49:36;;;;;;;;;;;11.00;99.90;;;;;;5107512;28;19924;-70
2022/03/18 09:52:03;;;;;;;;;;;11.00;99.90;;;;;;5110376;28;19924;-70
2022/03/18 09:54:32;;;;;;;;;;;10.90;99.90;;;;;;5108253;28;19998;-69
2022/03/18 09:56:59;;;;;;;;;;;11.00;99.90;;;;;;5096409;28;20030;-70
2022/03/18 09:59:27;;;;;;;;;;;10.90;99.90;;;;;;5101704;28;20271;-70
2022/03/18 10:02:12;;;;;;;;;;;10.90;99.90;;;;;;5096689;28;19924;-70
2022/03/18 10:04:52;;;;;;;;;;;10.60;99.90;;;;;;5100215;28;19975;-70
2022/03/18 10:07:21;;;;;;;;;;;10.40;99.90;;;;;;5075318;28;19934;-70
2022/03/18 10:10:23;;;;;;;;;;;10.30;99.90;;;;;;5090516;28;19970;-70
2022/03/18 10:12:50;;;;;;;;;;;10.10;99.90;;;;;;5012377;28;20540;-70
2022/03/18 10:15:22;;;;;;;;;;;9.80;99.90;;;;;;5039706;28;20460;-70
2022/03/18 10:17:48;;;;;;;;;;;9.60;99.90;;;;;;5046014;28;20504;-69
2022/03/18 10:20:27;;;;;;;;;;;9.50;99.90;;;;;;5047609;28;20470;-70
2022/03/18 10:22:56;;;;;;;;;;;9.60;99.90;;;;;;5033274;28;19978;-70
2022/03/18 10:25:35;;;;;;;;;;;9.70;99.90;;;;;;5049892;28;19960;-70
2022/03/18 10:28:01;;;;;;;;;;;10.10;99.90;;;;;;5048707;28;19935;-70
2022/03/18 10:30:28;;;;;;;;;;;10.40;99.90;;;;;;5048982;28;19925;-70
2022/03/18 10:32:55;;;;;;;;;;;10.60;99.90;;;;;;5049298;28;19932;-69
2022/03/18 10:38:30;;;;;;;;;;;11.80;99.90;;;;;;5034744;28;19925;-69
2022/03/18 10:40:58;;;;;;;;;;;12.40;99.90;;;;;;5043162;28;19924;-70
2022/03/18 10:43:25;;;;;;;;;;;12.30;99.90;;;;;;5033184;28;19931;-69
2022/03/18 10:45:58;;;;;;;;;;;12.20;99.90;;;;;;5049805;28;20399;-69
2022/03/18 10:48:25;;;;;;;;;;;11.90;99.90;;;;;;5042293;28;20015;-70
2022/03/18 10:51:10;;;;;;;;;;;11.80;99.90;;;;;;5093022;28;19930;-70
2022/03/18 10:53:37;;;;;;;;;;;12.00;99.90;;;;;;5093932;28;20018;-70
2022/03/18 10:56:04;;;;;;;;;;;12.20;99.90;;;;;;5100790;28;20023;-70
2022/03/18 10:58:32;;;;;;;;;;;12.20;99.90;;;;;;5093485;28;19966;-69
2022/03/18 11:01:02;;;;;;;;;;;12.20;99.90;;;;;;5101160;28;20275;-69
2022/03/18 11:03:30;;;;;;;;;;;12.10;99.90;;;;;;5099602;28;20402;-69
2022/03/18 11:06:02;;;;;;;;;;;12.30;99.90;;;;;;5093098;28;19963;-69
2022/03/18 11:08:43;;;;;;;;;;;12.40;99.90;;;;;;5091620;28;19950;-69
2022/03/18 11:11:15;;;;;;;;;;;12.50;99.90;;;;;;5085106;28;20018;-69
2022/03/18 11:13:56;;;;;;;;;;;12.50;99.90;;;;;;5101142;28;19967;-68
2022/03/18 11:16:29;;;;;;;;;;;12.40;99.90;;;;;;5109031;28;19963;-69
2022/03/18 11:19:01;;;;;;;;;;;12.30;99.90;;;;;;5094339;28;20325;-70
2022/03/18 11:21:50;;;;;;;;;;;12.50;99.90;;;;;;5105381;28;20397;-69
2022/03/18 11:24:22;;;;;;;;;;;12.60;99.90;;;;;;5111510;28;19966;-68
2022/03/18 11:26:50;;;;;;;;;;;12.50;99.90;;;;;;5102284;28;19928;-69
2022/03/18 11:29:23;;;;;;;;;;;13.00;99.90;;;;;;5106030;28;19931;-69
2022/03/18 11:32:16;;;;;;;;;;;13.40;99.90;;;;;;5090525;28;20006;-69
2022/03/18 11:34:53;;;;;;;;;;;13.30;99.90;;;;;;5097200;28;19931;-69
2022/03/18 11:37:20;;;;;;;;;;;13.00;99.90;;;;;;5095856;28;20364;-69
2022/03/18 11:39:47;;;;;;;;;;;12.90;99.90;;;;;;5103515;28;20015;-69
2022/03/18 11:42:22;;;;;;;;;;;13.10;99.90;;;;;;5084740;28;19959;-69
2022/03/18 11:44:53;;;;;;;;;;;13.20;99.90;;;;;;5095485;28;19934;-69
2022/03/18 11:47:20;;;;;;;;;;;13.20;99.90;;;;;;5101696;28;19931;-69
2022/03/18 11:49:53;;;;;;;;;;;13.30;99.90;;;;;;5110525;28;19927;-70
2022/03/18 11:52:20;;;;;;;;;;;13.60;99.90;;;;;;5090233;28;20046;-68
2022/03/18 11:54:54;;;;;;;;;;;13.70;99.90;;;;;;5080354;28;19962;-68
2022/03/18 11:57:33;;;;;;;;;;;14.10;99.90;;;;;;5102549;28;19935;-68
2022/03/18 12:00:07;;;;;;;;;;;14.30;99.90;;;;;;5094895;28;19924;-68
2022/03/18 12:02:37;;;;;;;;;;;14.30;99.70;;;;;;5099356;28;19924;-68
2022/03/18 12:05:07;;;;;;;;;;;14.80;99.70;;;;;;5091842;28;20337;-69
2022/03/18 12:07:47;;;;;;;;;;;14.90;99.90;;;;;;5092831;28;19928;-69
2022/03/18 12:10:14;;;;;;;;;;;15.30;99.80;;;;;;5092961;28;20019;-69
2022/03/18 12:12:42;;;;;;;;;;;14.90;98.80;;;;;;5091462;28;20006;-68
2022/03/18 12:15:16;;;;;;;;;;;15.00;99.40;;;;;;5099802;28;19924;-69
2022/03/18 12:17:47;;;;;;;;;;;14.90;99.30;;;;;;5100756;28;19934;-69
2022/03/18 12:20:17;;;;;;;;;;;15.10;99.90;;;;;;5104586;28;19928;-68
2022/03/18 12:22:45;;;;;;;;;;;15.00;99.60;;;;;;5103624;28;19923;-69
2022/03/18 12:25:14;;;;;;;;;;;14.70;99.90;;;;;;5108681;28;20431;-69
2022/03/18 12:27:41;;;;;;;;;;;14.70;99.90;;;;;;5096003;28;20267;-69
2022/03/18 12:30:11;;;;;;;;;;;14.60;99.90;;;;;;5100702;28;19925;-69
2022/03/18 12:32:49;;;;;;;;;;;14.80;99.90;;;;;;5106187;28;19959;-68
2022/03/18 12:35:17;;;;;;;;;;;15.40;99.90;;;;;;5090727;28;19923;-68
2022/03/18 12:37:45;;;;;;;;;;;15.80;99.90;;;;;;5097035;28;20616;-68
2022/03/18 12:40:16;;;;;;;;;;;16.30;99.70;;;;;;5093098;28;19931;-68
2022/03/18 12:42:46;;;;;;;;;;;17.00;99.80;;;;;;5095063;28;19951;-68
2022/03/18 12:45:12;;;;;;;;;;;17.40;99.80;;;;;;5077267;28;19967;-68
2022/03/18 12:47:39;;;;;;;;;;;17.70;99.00;;;;;;5090267;28;20009;-69
2022/03/18 12:50:06;;;;;;;;;;;17.80;97.80;;;;;;5091319;28;19925;-68
2022/03/18 12:52:41;;;;;;;;;;;17.80;97.80;;;;;;5089312;28;19928;-68
2022/03/18 12:55:09;;;;;;;;;;;18.10;97.60;;;;;;5090921;28;19924;-68
2022/03/18 12:57:37;;;;;;;;;;;18.30;97.90;;;;;;5103582;28;19945;-68
2022/03/18 13:00:11;;;;;;;;;;;18.50;97.50;;;;;;5107889;28;19966;-68
2022/03/18 13:02:58;;;;;;;;;;;18.60;96.60;;;;;;5094152;28;20396;-68
2022/03/18 13:05:26;;;;;;;;;;;18.50;96.00;;;;;;5090338;28;19924;-69
2022/03/18 13:07:55;;;;;;;;;;;18.30;95.40;;;;;;5090716;28;19930;-68
2022/03/18 13:10:25;;;;;;;;;;;18.00;95.60;;;;;;5100489;28;19930;-69
2022/03/18 13:12:52;;;;;;;;;;;18.30;95.60;;;;;;5107550;28;19983;-68
2022/03/18 13:15:19;;;;;;;;;;;18.40;95.70;;;;;;5111523;28;19970;-68
2022/03/18 13:17:47;;;;;;;;;;;18.90;95.20;;;;;;5107777;28;19969;-68
2022/03/18 13:20:26;;;;;;;;;;;19.30;95.20;;;;;;5110312;28;19924;-68
2022/03/18 13:22:54;;;;;;;;;;;19.50;94.00;;;;;;5093359;28;20570;-68
2022/03/18 13:25:24;;;;;;;;;;;19.40;93.50;;;;;;5091608;28;19931;-68
2022/03/18 13:27:51;;;;;;;;;;;19.50;93.50;;;;;;5097913;28;20287;-68
2022/03/18 13:33:08;;;;;;;;;;;20.00;92.50;;;;;;5098524;28;19924;-69
2022/03/18 13:35:45;;;;;;;;;;;20.00;92.50;;;;;;5102950;28;19923;-68
2022/03/18 13:38:17;;;;;;;;;;;19.90;90.50;;;;;;5100264;28;19939;-68
2022/03/18 13:40:56;;;;;;;;;;;19.40;89.20;;;;;;5101816;28;19925;-68
2022/03/18 13:43:25;;;;;;;;;;;19.40;90.00;;;;;;5104323;28;19938;-68
2022/03/18 13:45:52;;;;;;;;;;;19.60;88.40;;;;;;5093186;28;19924;-68
2022/03/18 13:48:27;;;;;;;;;;;19.30;87.30;;;;;;5102217;28;19924;-68
2022/03/18 13:50:54;;;;;;;;;;;19.00;88.00;;;;;;5103224;28;19924;-68
2022/03/18 13:53:22;;;;;;;;;;;19.30;88.70;;;;;;5098484;28;20379;-68
2022/03/18 13:55:51;;;;;;;;;;;20.10;87.40;;;;;;5080949;28;19967;-68
2022/03/18 13:58:28;;;;;;;;;;;20.20;87.00;;;;;;5111034;28;20015;-68
2022/03/18 14:01:11;;;;;;;;;;;19.90;85.70;;;;;;5094301;28;19924;-68
2022/03/18 14:03:42;;;;;;;;;;;20.00;86.30;;;;;;5095491;28;19928;-68
2022/03/18 14:06:09;;;;;;;;;;;19.90;85.70;;;;;;5082780;28;20362;-68
2022/03/18 14:08:42;;;;;;;;;;;20.00;85.60;;;;;;5095806;28;20338;-67
2022/03/18 14:14:19;;;;;;;;;;;20.10;85.80;;;;;;5093324;28;20049;-67
2022/03/18 14:17:04;;;;;;;;;;;20.20;84.30;;;;;;5094035;28;19931;-67
2022/03/18 14:19:50;;;;;;;;;;;19.80;84.60;;;;;;5093944;28;19981;-68
2022/03/18 14:22:36;;;;;;;;;;;19.50;82.90;;;;;;5108311;28;20423;-67
2022/03/18 14:25:21;;;;;;;;;;;18.90;84.20;;;;;;5100881;28;19969;-68
2022/03/18 14:27:50;;;;;;;;;;;18.40;86.20;;;;;;5093657;28;20392;-67
2022/03/18 14:30:23;;;;;;;;;;;18.60;84.80;;;;;;5093080;28;20022;-68
2022/03/18 14:32:55;;;;;;;;;;;18.70;85.00;;;;;;5104476;28;19927;-67
2022/03/18 14:35:22;;;;;;;;;;;19.40;84.20;;;;;;5096396;28;19931;-67
2022/03/18 14:37:49;;;;;;;;;;;19.70;84.00;;;;;;5105136;28;19927;-67
2022/03/18 14:40:17;;;;;;;;;;;20.00;83.20;;;;;;5104654;28;20017;-67
2022/03/18 14:42:45;;;;;;;;;;;20.00;82.80;;;;;;5104950;28;19930;-68
2022/03/18 14:45:15;;;;;;;;;;;19.70;83.00;;;;;;5110701;28;20378;-67
2022/03/18 14:47:42;;;;;;;;;;;19.50;82.10;;;;;;5082853;28;19924;-67
2022/03/18 14:50:10;;;;;;;;;;;18.90;82.20;;;;;;5092510;28;20561;-67
2022/03/18 14:52:38;;;;;;;;;;;18.90;83.20;;;;;;5093847;27;19967;-67
2022/03/18 14:57:52;;;;;;;;;;;18.80;84.00;;;;;;5092739;28;19931;-67
2022/03/18 15:00:19;;;;;;;;;;;19.00;83.70;;;;;;5104071;28;20019;-67
2022/03/18 15:02:46;;;;;;;;;;;19.00;83.30;;;;;;5097469;28;20012;-67
2022/03/18 15:05:15;;;;;;;;;;;19.10;83.40;;;;;;5093780;28;20439;-67